Terminal Aerodrome Forecast
Issued by NWS Charleston, WV

Current Version | Previous Version | Graphics & Text | Print | Product List | Glossary Off
Versions: 1 2 3 4 5 6 7 8 9 10 11 12 13 14 15 16 17 18 19 20 21 22 23

000
FTUS41 KRLX 181725
TAFCRW
TAF
KCRW 181725Z 1818/1918 24006KT P6SM -DZ OVC012
     FM182100 23006KT P6SM OVC009
      TEMPO 1821/1823 4SM -DZ OVC003
     FM190200 23005KT P6SM OVC010
     FM190500 24005KT P6SM OVC013
     FM191400 23006KT P6SM BKN020
     FM191700 24008G15KT P6SM SCT030=

USA.gov is the U.S. government's official web portal to all federal, state and local government web resources and services.